Oscoda, MI (48750)

11:26 PM EDT on March 28, 2015 (GMT -0400)
Oscoda-Wurtsmith | | Change Station
CLOSE
Current Station
Airport
Location: Oscoda,
Elevation: 633 ft
Nearby Weather Stations

Elev 633 ft 44.45 °N, 83.39 °W | Updated 12 minutes ago

Clear
Clear
19 °F
Feels Like 19 °F
N
0
Wind Variable Wind from North

Today
High -- | Low -- °F
--% Chance of Precip.
Yesterday
High -- | Low -- °F
Precip. -- in
7:22 AM 7:56 PM
Waxing Gibbous, 68% visible
Pressure 30.24 in
Visibility 10.0 miles
Clouds Clear
Dew Point 14 °F
Humidity 81%
Rainfall 0.00 in
Snow Depth Not available.
UV 0 out of 12
Pollen 1.20 out of 12
Air Quality Not available.
Flu Activity Not available.
METAR KOSC 290314Z AUTO 00000KT 10SM CLR M07/M10 A3024 RMK AO2 T10721100

More Conditions Fewer Conditions

Pressure 30.24 in
Visibility 10.0 miles
Clouds Clear
Dew Point 14 °F
Humidity 81%
Rainfall 0.00 in
Snow Depth Not available.
UV 0 out of 12
Pollen 1.20 out of 12
Air Quality Not available.
Flu Activity Not available.
METAR KOSC 290314Z AUTO 00000KT 10SM CLR M07/M10 A3024 RMK AO2 T10721100

More Conditions Fewer Conditions

Nowcast | as of 11:00 PM EDT on March 28, 2015

At 12 am...clear. Temperature 19. Southwest winds 5 mph. At 2 am...clear. Temperature 16. Southwest winds 5 mph. At 4 am...clear. Temperature 15. Southwest winds 6 mph. At 6 am...mostly clear. Temperature 13. Southwest winds 8 mph.

×

10-Day Weather Forecast

Almanac

Astronomy

Mar. 28, 2015 Rise Set
Actual Time
Civil Twilight
Nautical Twilight
Astronomical Twilight
Moon
Length of Visible Light
Length of Day
Tomorrow will be .
, % of the Moon is Illuminated

Today's Extremes

State Highs State Lows

Community

WunderPhotos

Upload Photos

1,809,174 photos uploaded!

WunderBlogs® & News

Nearby

Air Quality

  Air Quality AQ Index Pollutant
Not available.

Snow Depth

Station Depth Elevation

Earthquake Activity

City Distance Mag. Time & Date
Minimum magnitude displayed is 2.5.

Coastal Water Temperatures

Place Temperature

Stations

Nearby Weather Stations

Station Location Temp. Windchill Dew Point Humidity Wind Precip. Elev Updated Type